DAL348 KATL-KPHX
Flight info
| Callsign | DAL348 |
|---|---|
| Flight time | N/A |
| Altitude | 30000 |
| Route | NASSA2 YAALL J14 IRW J6 PNH/N0504F320 J6 ZUN EAGUL6 |
| Aircraft | B763/H-SDE3FGHIM3RWXY/LB1 |
Departure
| Time | N/A |
|---|---|
| Airport | Hartsfield Jackson Atlanta International Airport (KATL) |
Arrival
| Time | 2026-05-05 03:44 |
|---|---|
| Airport | Phoenix Sky Harbor International Airport (KPHX) |
| Time | Latitude | Longitude | Altitude | Speed | Heading |
|---|---|---|---|---|---|
| 2026-05-05 01:13 | 35.00487 | -94.53957 | 29784 ft | 387 kts | 278° |
| 2026-05-05 01:13 | 35.00719 | -94.57215 | 29783 ft | 387 kts | 279° |
| 2026-05-05 01:14 | 35.01183 | -94.63729 | 29779 ft | 387 kts | 279° |
| 2026-05-05 01:14 | 35.01728 | -94.70223 | 29792 ft | 384 kts | 283° |
| 2026-05-05 01:15 | 35.02663 | -94.76646 | 29797 ft | 385 kts | 282° |
| 2026-05-05 01:15 | 35.03557 | -94.83091 | 29787 ft | 385 kts | 282° |
| 2026-05-05 01:16 | 35.04431 | -94.89492 | 29779 ft | 384 kts | 282° |
| 2026-05-05 01:16 | 35.05300 | -94.95915 | 29763 ft | 386 kts | 282° |
| 2026-05-05 01:17 | 35.06169 | -95.02351 | 29777 ft | 384 kts | 282° |
| 2026-05-05 01:17 | 35.07028 | -95.08753 | 29784 ft | 384 kts | 282° |
| 2026-05-05 01:18 | 35.07884 | -95.15169 | 29780 ft | 385 kts | 282° |
| 2026-05-05 01:18 | 35.08742 | -95.21608 | 29777 ft | 384 kts | 282° |
| 2026-05-05 01:19 | 35.09593 | -95.28040 | 29780 ft | 385 kts | 282° |
| 2026-05-05 01:19 | 35.10437 | -95.34444 | 29782 ft | 384 kts | 282° |
| 2026-05-05 01:20 | 35.11284 | -95.40885 | 29775 ft | 385 kts | 282° |
| 2026-05-05 01:20 | 35.12123 | -95.47330 | 29759 ft | 386 kts | 281° |
| 2026-05-05 01:21 | 35.12893 | -95.53770 | 29743 ft | 384 kts | 281° |
| 2026-05-05 01:21 | 35.13662 | -95.60218 | 29737 ft | 385 kts | 281° |
| 2026-05-05 01:22 | 35.14423 | -95.66634 | 29735 ft | 383 kts | 281° |
| 2026-05-05 01:22 | 35.15187 | -95.73084 | 29735 ft | 385 kts | 281° |
| 2026-05-05 01:23 | 35.15946 | -95.79547 | 29746 ft | 384 kts | 281° |
| 2026-05-05 01:23 | 35.16701 | -95.85998 | 29729 ft | 383 kts | 281° |
| 2026-05-05 01:24 | 35.17451 | -95.92431 | 29726 ft | 382 kts | 280° |
| 2026-05-05 01:24 | 35.18199 | -95.98862 | 29725 ft | 384 kts | 280° |
| 2026-05-05 01:25 | 35.18940 | -96.05283 | 29708 ft | 382 kts | 280° |
| 2026-05-05 01:25 | 35.19677 | -96.11701 | 29726 ft | 384 kts | 280° |
| 2026-05-05 01:26 | 35.20412 | -96.18135 | 29714 ft | 383 kts | 280° |
| 2026-05-05 01:26 | 35.21144 | -96.24565 | 29712 ft | 382 kts | 281° |
| 2026-05-05 01:27 | 35.21873 | -96.30977 | 29710 ft | 384 kts | 281° |
| 2026-05-05 01:27 | 35.22602 | -96.37439 | 29696 ft | 383 kts | 281° |
| 2026-05-05 01:28 | 35.23327 | -96.43890 | 29696 ft | 384 kts | 281° |
| 2026-05-05 01:28 | 35.24044 | -96.50304 | 29706 ft | 382 kts | 281° |
| 2026-05-05 01:29 | 35.24759 | -96.56722 | 29690 ft | 384 kts | 281° |
| 2026-05-05 01:29 | 35.25472 | -96.63155 | 29694 ft | 383 kts | 281° |
| 2026-05-05 01:30 | 35.26181 | -96.69601 | 29717 ft | 383 kts | 281° |
| 2026-05-05 01:30 | 35.26889 | -96.76061 | 29707 ft | 382 kts | 280° |
| 2026-05-05 01:31 | 35.27588 | -96.82458 | 29695 ft | 383 kts | 281° |
| 2026-05-05 01:31 | 35.28288 | -96.88904 | 29698 ft | 382 kts | 280° |
| 2026-05-05 01:32 | 35.28979 | -96.95305 | 29692 ft | 382 kts | 281° |
| 2026-05-05 01:32 | 35.29670 | -97.01729 | 29688 ft | 381 kts | 280° |
| 2026-05-05 01:33 | 35.30356 | -97.08148 | 29690 ft | 382 kts | 281° |
| 2026-05-05 01:33 | 35.31039 | -97.14577 | 29693 ft | 383 kts | 281° |
| 2026-05-05 01:34 | 35.31717 | -97.20992 | 29678 ft | 381 kts | 281° |
| 2026-05-05 01:34 | 35.32396 | -97.27436 | 29663 ft | 381 kts | 280° |
| 2026-05-05 01:35 | 35.33068 | -97.33849 | 29662 ft | 382 kts | 280° |
| 2026-05-05 01:35 | 35.33738 | -97.40282 | 29656 ft | 381 kts | 280° |
| 2026-05-05 01:36 | 35.34404 | -97.46719 | 29655 ft | 381 kts | 280° |
| 2026-05-05 01:36 | 35.35064 | -97.53127 | 29654 ft | 381 kts | 280° |
| 2026-05-05 01:37 | 35.35718 | -97.59534 | 29648 ft | 381 kts | 279° |
| 2026-05-05 01:37 | 35.35772 | -97.66051 | 29649 ft | 383 kts | 274° |
| 2026-05-05 01:38 | 35.35693 | -97.72555 | 29660 ft | 385 kts | 274° |
| 2026-05-05 01:38 | 35.35603 | -97.79079 | 29657 ft | 383 kts | 273° |
| 2026-05-05 01:39 | 35.35507 | -97.85581 | 29659 ft | 382 kts | 273° |
| 2026-05-05 01:39 | 35.35406 | -97.92085 | 29650 ft | 383 kts | 274° |
| 2026-05-05 01:40 | 35.35302 | -97.98540 | 29633 ft | 380 kts | 274° |
| 2026-05-05 01:40 | 35.35197 | -98.05042 | 29629 ft | 382 kts | 274° |
| 2026-05-05 01:41 | 35.35084 | -98.11554 | 29623 ft | 384 kts | 274° |
| 2026-05-05 01:41 | 35.34969 | -98.18055 | 29632 ft | 382 kts | 272° |
| 2026-05-05 01:42 | 35.34849 | -98.24533 | 29625 ft | 383 kts | 273° |
| 2026-05-05 01:42 | 35.34729 | -98.31030 | 29621 ft | 382 kts | 273° |
| 2026-05-05 01:43 | 35.34604 | -98.37510 | 29622 ft | 384 kts | 273° |
| 2026-05-05 01:43 | 35.34473 | -98.44032 | 29626 ft | 385 kts | 273° |
| 2026-05-05 01:44 | 35.34340 | -98.50565 | 29621 ft | 384 kts | 272° |
| 2026-05-05 01:44 | 35.34203 | -98.57089 | 29621 ft | 384 kts | 273° |
| 2026-05-05 01:45 | 35.34063 | -98.63641 | 29627 ft | 385 kts | 272° |
| 2026-05-05 01:45 | 35.33919 | -98.70144 | 29650 ft | 385 kts | 272° |
| 2026-05-05 01:46 | 35.33772 | -98.76698 | 29654 ft | 386 kts | 272° |
| 2026-05-05 01:46 | 35.33620 | -98.83238 | 29646 ft | 385 kts | 272° |
| 2026-05-05 01:47 | 35.33466 | -98.89817 | 29640 ft | 388 kts | 272° |
| 2026-05-05 01:47 | 35.33306 | -98.96396 | 29645 ft | 386 kts | 272° |
| 2026-05-05 01:48 | 35.33143 | -99.02937 | 29641 ft | 387 kts | 272° |
| 2026-05-05 01:48 | 35.32977 | -99.09471 | 29644 ft | 387 kts | 272° |
| 2026-05-05 01:49 | 35.32808 | -99.16048 | 29648 ft | 387 kts | 272° |
| 2026-05-05 01:49 | 35.32634 | -99.22588 | 29642 ft | 386 kts | 271° |
| 2026-05-05 01:50 | 35.32456 | -99.29178 | 29642 ft | 388 kts | 272° |
| 2026-05-05 01:50 | 35.32277 | -99.35725 | 29640 ft | 387 kts | 272° |
| 2026-05-05 01:51 | 35.32092 | -99.42306 | 29653 ft | 387 kts | 271° |
| 2026-05-05 01:51 | 35.31904 | -99.48870 | 29647 ft | 387 kts | 272° |
| 2026-05-05 01:52 | 35.31715 | -99.55405 | 29661 ft | 388 kts | 272° |
| 2026-05-05 01:52 | 35.31519 | -99.61985 | 29663 ft | 387 kts | 272° |
| 2026-05-05 01:53 | 35.31320 | -99.68546 | 29695 ft | 387 kts | 271° |
| 2026-05-05 01:53 | 35.31118 | -99.75120 | 29695 ft | 387 kts | 271° |
| 2026-05-05 01:54 | 35.30912 | -99.81683 | 29740 ft | 386 kts | 271° |
| 2026-05-05 01:54 | 35.30810 | -99.84940 | 29972 ft | 385 kts | 271° |
| 2026-05-05 01:54 | 35.30705 | -99.88220 | 30212 ft | 388 kts | 271° |
| 2026-05-05 01:55 | 35.30598 | -99.91514 | 30548 ft | 388 kts | 270° |
| 2026-05-05 01:55 | 35.30492 | -99.94784 | 31112 ft | 383 kts | 271° |
| 2026-05-05 01:55 | 35.30384 | -99.98018 | 31626 ft | 379 kts | 271° |
| 2026-05-05 01:55 | 35.30278 | -100.01237 | 31689 ft | 378 kts | 271° |
| 2026-05-05 01:56 | 35.30063 | -100.07594 | 31708 ft | 376 kts | 271° |
| 2026-05-05 01:56 | 35.29850 | -100.13961 | 31714 ft | 374 kts | 271° |
| 2026-05-05 01:57 | 35.29628 | -100.20282 | 31708 ft | 374 kts | 271° |
| 2026-05-05 01:57 | 35.29406 | -100.26652 | 31711 ft | 376 kts | 271° |
| 2026-05-05 01:58 | 35.29180 | -100.33027 | 31708 ft | 375 kts | 271° |
| 2026-05-05 01:58 | 35.28950 | -100.39389 | 31738 ft | 374 kts | 271° |
| 2026-05-05 01:59 | 35.28718 | -100.45736 | 31738 ft | 376 kts | 271° |
| 2026-05-05 01:59 | 35.28484 | -100.52116 | 31739 ft | 374 kts | 271° |
| 2026-05-05 02:00 | 35.28246 | -100.58433 | 31744 ft | 375 kts | 271° |
| 2026-05-05 02:00 | 35.28001 | -100.64791 | 31745 ft | 375 kts | 270° |
| 2026-05-05 02:01 | 35.27754 | -100.71195 | 31773 ft | 377 kts | 270° |
| 2026-05-05 02:01 | 35.27506 | -100.77518 | 31784 ft | 374 kts | 270° |
| 2026-05-05 02:02 | 35.27253 | -100.83884 | 31775 ft | 375 kts | 270° |
| 2026-05-05 02:02 | 35.26995 | -100.90267 | 31796 ft | 376 kts | 270° |
| 2026-05-05 02:03 | 35.26734 | -100.96632 | 31792 ft | 375 kts | 270° |
| 2026-05-05 02:03 | 35.26474 | -101.02959 | 31798 ft | 376 kts | 270° |
| 2026-05-05 02:04 | 35.26207 | -101.09353 | 31800 ft | 377 kts | 269° |
| 2026-05-05 02:04 | 35.25936 | -101.15740 | 31797 ft | 376 kts | 270° |
| 2026-05-05 02:05 | 35.25662 | -101.22099 | 31792 ft | 377 kts | 270° |
| 2026-05-05 02:05 | 35.25386 | -101.28435 | 31808 ft | 375 kts | 270° |
| 2026-05-05 02:06 | 35.25109 | -101.34824 | 31797 ft | 376 kts | 270° |
| 2026-05-05 02:06 | 35.24823 | -101.41171 | 31786 ft | 375 kts | 270° |
| 2026-05-05 02:07 | 35.24538 | -101.47512 | 31796 ft | 377 kts | 270° |
| 2026-05-05 02:07 | 35.24248 | -101.53869 | 31777 ft | 372 kts | 270° |
| 2026-05-05 02:08 | 35.23959 | -101.60137 | 31783 ft | 371 kts | 270° |
| 2026-05-05 02:08 | 35.23667 | -101.66424 | 31792 ft | 372 kts | 269° |
| 2026-05-05 02:09 | 35.23444 | -101.72720 | 31808 ft | 370 kts | 270° |
| 2026-05-05 02:09 | 35.23318 | -101.79023 | 31813 ft | 370 kts | 270° |
| 2026-05-05 02:10 | 35.23186 | -101.85268 | 31809 ft | 371 kts | 270° |
| 2026-05-05 02:10 | 35.23050 | -101.91585 | 31813 ft | 371 kts | 270° |
| 2026-05-05 02:11 | 35.22913 | -101.97845 | 31813 ft | 369 kts | 270° |
| 2026-05-05 02:11 | 35.22771 | -102.04129 | 31831 ft | 372 kts | 270° |
| 2026-05-05 02:12 | 35.22697 | -102.07263 | 32009 ft | 369 kts | 270° |
| 2026-05-05 02:12 | 35.22554 | -102.13487 | 32217 ft | 366 kts | 270° |
| 2026-05-05 02:13 | 35.22405 | -102.19706 | 32283 ft | 367 kts | 270° |
| 2026-05-05 02:13 | 35.22255 | -102.25890 | 32392 ft | 366 kts | 270° |
| 2026-05-05 02:14 | 35.22102 | -102.32060 | 32505 ft | 365 kts | 270° |
| 2026-05-05 02:14 | 35.21943 | -102.38260 | 33169 ft | 368 kts | 269° |
| 2026-05-05 02:14 | 35.21865 | -102.41313 | 34445 ft | 358 kts | 270° |
| 2026-05-05 02:15 | 35.21786 | -102.44360 | 35404 ft | 355 kts | 270° |
| 2026-05-05 02:15 | 35.21709 | -102.47360 | 35936 ft | 359 kts | 270° |
| 2026-05-05 02:15 | 35.21629 | -102.50466 | 35863 ft | 373 kts | 270° |
| 2026-05-05 02:16 | 35.21462 | -102.56595 | 35867 ft | 346 kts | 269° |
| 2026-05-05 02:16 | 35.21306 | -102.62331 | 35891 ft | 341 kts | 270° |
| 2026-05-05 02:17 | 35.21143 | -102.68214 | 35922 ft | 349 kts | 269° |
| 2026-05-05 02:17 | 35.20975 | -102.74095 | 35910 ft | 345 kts | 269° |
| 2026-05-05 02:18 | 35.20806 | -102.79953 | 35915 ft | 347 kts | 269° |
| 2026-05-05 02:18 | 35.20634 | -102.85832 | 35899 ft | 346 kts | 270° |
| 2026-05-05 02:19 | 35.20460 | -102.91710 | 35891 ft | 346 kts | 268° |
| 2026-05-05 02:19 | 35.20282 | -102.97555 | 35888 ft | 347 kts | 269° |
| 2026-05-05 02:20 | 35.20102 | -103.03429 | 35887 ft | 345 kts | 269° |
| 2026-05-05 02:20 | 35.19921 | -103.09239 | 35758 ft | 347 kts | 269° |
| 2026-05-05 02:20 | 35.19826 | -103.12201 | 34999 ft | 348 kts | 269° |
| 2026-05-05 02:21 | 35.19734 | -103.15142 | 33858 ft | 351 kts | 269° |
| 2026-05-05 02:21 | 35.19637 | -103.18114 | 32517 ft | 358 kts | 269° |
| 2026-05-05 02:21 | 35.19540 | -103.21127 | 31851 ft | 352 kts | 269° |
| 2026-05-05 02:22 | 35.19344 | -103.27112 | 31925 ft | 363 kts | 269° |
| 2026-05-05 02:22 | 35.19135 | -103.33371 | 31912 ft | 371 kts | 269° |
| 2026-05-05 02:23 | 35.18924 | -103.39621 | 31919 ft | 369 kts | 269° |
| 2026-05-05 02:23 | 35.18710 | -103.45866 | 31905 ft | 367 kts | 269° |
| 2026-05-05 02:24 | 35.18491 | -103.52132 | 31884 ft | 370 kts | 269° |
| 2026-05-05 02:24 | 35.18272 | -103.58378 | 31879 ft | 370 kts | 268° |
| 2026-05-05 02:25 | 35.18076 | -103.64642 | 31872 ft | 369 kts | 269° |
| 2026-05-05 02:25 | 35.17884 | -103.70906 | 31915 ft | 371 kts | 269° |
| 2026-05-05 02:26 | 35.17693 | -103.77181 | 31913 ft | 370 kts | 269° |
| 2026-05-05 02:26 | 35.17493 | -103.83469 | 31951 ft | 370 kts | 269° |
| 2026-05-05 02:27 | 35.17295 | -103.89709 | 31965 ft | 370 kts | 269° |
| 2026-05-05 02:27 | 35.17092 | -103.95987 | 31966 ft | 371 kts | 269° |
| 2026-05-05 02:28 | 35.16884 | -104.02253 | 31991 ft | 370 kts | 268° |
| 2026-05-05 02:28 | 35.16674 | -104.08555 | 31989 ft | 370 kts | 268° |
| 2026-05-05 02:29 | 35.16463 | -104.14803 | 31996 ft | 371 kts | 268° |
| 2026-05-05 02:29 | 35.16244 | -104.21074 | 32008 ft | 371 kts | 268° |
| 2026-05-05 02:30 | 35.16025 | -104.27355 | 31999 ft | 371 kts | 268° |
| 2026-05-05 02:30 | 35.15800 | -104.33631 | 31986 ft | 370 kts | 269° |
| 2026-05-05 02:31 | 35.15574 | -104.39932 | 31988 ft | 372 kts | 268° |
| 2026-05-05 02:31 | 35.15342 | -104.46217 | 31990 ft | 373 kts | 268° |
| 2026-05-05 02:32 | 35.15109 | -104.52524 | 31986 ft | 372 kts | 269° |
| 2026-05-05 02:32 | 35.14874 | -104.58820 | 31980 ft | 372 kts | 267° |
| 2026-05-05 02:33 | 35.14632 | -104.65118 | 31994 ft | 372 kts | 267° |
| 2026-05-05 02:33 | 35.14386 | -104.71435 | 32016 ft | 375 kts | 268° |
| 2026-05-05 02:34 | 35.14140 | -104.77760 | 32010 ft | 371 kts | 267° |
| 2026-05-05 02:34 | 35.13890 | -104.84045 | 32034 ft | 372 kts | 268° |
| 2026-05-05 02:35 | 35.13636 | -104.90344 | 32035 ft | 372 kts | 267° |
| 2026-05-05 02:35 | 35.13379 | -104.96641 | 32030 ft | 372 kts | 267° |
| 2026-05-05 02:36 | 35.13121 | -105.02919 | 32041 ft | 373 kts | 267° |
| 2026-05-05 02:36 | 35.12857 | -105.09207 | 32047 ft | 372 kts | 267° |
| 2026-05-05 02:37 | 35.12592 | -105.15502 | 32063 ft | 371 kts | 266° |
| 2026-05-05 02:37 | 35.12322 | -105.21766 | 32061 ft | 371 kts | 266° |
| 2026-05-05 02:38 | 35.12051 | -105.28039 | 32063 ft | 370 kts | 267° |
| 2026-05-05 02:38 | 35.11775 | -105.34325 | 32063 ft | 371 kts | 267° |
| 2026-05-05 02:39 | 35.11498 | -105.40552 | 32066 ft | 370 kts | 267° |
| 2026-05-05 02:39 | 35.11218 | -105.46832 | 32071 ft | 371 kts | 266° |
| 2026-05-05 02:40 | 35.10933 | -105.53072 | 32076 ft | 369 kts | 266° |
| 2026-05-05 02:40 | 35.10647 | -105.59314 | 32083 ft | 368 kts | 266° |
| 2026-05-05 02:41 | 35.10358 | -105.65561 | 32095 ft | 371 kts | 265° |
| 2026-05-05 02:41 | 35.10061 | -105.71822 | 32110 ft | 369 kts | 266° |
| 2026-05-05 02:42 | 35.09770 | -105.77997 | 32118 ft | 366 kts | 265° |
| 2026-05-05 02:42 | 35.09471 | -105.84185 | 32124 ft | 368 kts | 266° |
| 2026-05-05 02:43 | 35.09170 | -105.90389 | 32124 ft | 366 kts | 265° |
| 2026-05-05 02:43 | 35.08868 | -105.96593 | 32115 ft | 367 kts | 265° |
| 2026-05-05 02:44 | 35.08561 | -106.02797 | 32107 ft | 366 kts | 265° |
| 2026-05-05 02:44 | 35.08250 | -106.08984 | 32112 ft | 367 kts | 265° |
| 2026-05-05 02:45 | 35.07937 | -106.15166 | 32108 ft | 367 kts | 266° |
| 2026-05-05 02:45 | 35.07620 | -106.21386 | 32086 ft | 368 kts | 265° |
| 2026-05-05 02:46 | 35.07298 | -106.27623 | 32081 ft | 368 kts | 265° |
| 2026-05-05 02:46 | 35.06977 | -106.33783 | 32074 ft | 367 kts | 264° |
| 2026-05-05 02:47 | 35.06650 | -106.39995 | 32060 ft | 369 kts | 265° |
| 2026-05-05 02:47 | 35.06318 | -106.46238 | 32059 ft | 368 kts | 264° |
| 2026-05-05 02:48 | 35.05981 | -106.52473 | 32037 ft | 370 kts | 265° |
| 2026-05-05 02:48 | 35.05647 | -106.58694 | 32032 ft | 369 kts | 265° |
| 2026-05-05 02:49 | 35.05307 | -106.64932 | 32021 ft | 369 kts | 264° |
| 2026-05-05 02:49 | 35.04961 | -106.71181 | 32031 ft | 372 kts | 264° |
| 2026-05-05 02:50 | 35.04613 | -106.77427 | 32018 ft | 368 kts | 264° |
| 2026-05-05 02:50 | 35.04319 | -106.83649 | 32040 ft | 369 kts | 265° |
| 2026-05-05 02:51 | 35.04178 | -106.89909 | 32030 ft | 369 kts | 265° |
| 2026-05-05 02:51 | 35.04024 | -106.96133 | 32033 ft | 369 kts | 265° |
| 2026-05-05 02:52 | 35.03869 | -107.02372 | 32043 ft | 370 kts | 265° |
| 2026-05-05 02:52 | 35.03705 | -107.08660 | 32066 ft | 371 kts | 265° |
| 2026-05-05 02:53 | 35.03540 | -107.14925 | 32058 ft | 369 kts | 265° |
| 2026-05-05 02:53 | 35.03376 | -107.21127 | 32091 ft | 369 kts | 265° |
| 2026-05-05 02:54 | 35.03203 | -107.27370 | 32095 ft | 372 kts | 265° |
| 2026-05-05 02:54 | 35.03030 | -107.33677 | 32089 ft | 373 kts | 265° |
| 2026-05-05 02:55 | 35.02851 | -107.39970 | 32107 ft | 373 kts | 265° |
| 2026-05-05 02:55 | 35.02671 | -107.46269 | 32104 ft | 373 kts | 265° |
| 2026-05-05 02:56 | 35.02486 | -107.52592 | 32114 ft | 375 kts | 264° |
| 2026-05-05 02:56 | 35.02294 | -107.58913 | 32106 ft | 373 kts | 265° |
| 2026-05-05 02:57 | 35.02102 | -107.65253 | 32108 ft | 373 kts | 264° |
| 2026-05-05 02:57 | 35.01907 | -107.71581 | 32128 ft | 376 kts | 264° |
| 2026-05-05 02:58 | 35.01709 | -107.77875 | 32129 ft | 373 kts | 265° |
| 2026-05-05 02:58 | 35.01509 | -107.84193 | 32128 ft | 376 kts | 264° |
| 2026-05-05 02:59 | 35.01300 | -107.90595 | 32135 ft | 377 kts | 264° |
| 2026-05-05 02:59 | 35.01092 | -107.96956 | 32145 ft | 377 kts | 264° |
| 2026-05-05 03:00 | 35.00877 | -108.03362 | 32146 ft | 376 kts | 264° |
| 2026-05-05 03:00 | 35.00661 | -108.09684 | 32153 ft | 378 kts | 264° |
| 2026-05-05 03:01 | 35.00441 | -108.16058 | 32141 ft | 375 kts | 264° |
| 2026-05-05 03:01 | 35.00218 | -108.22430 | 32144 ft | 377 kts | 263° |
| 2026-05-05 03:02 | 34.99992 | -108.28762 | 32138 ft | 374 kts | 263° |
| 2026-05-05 03:02 | 34.99764 | -108.35098 | 32147 ft | 374 kts | 264° |
| 2026-05-05 03:03 | 34.99532 | -108.41412 | 32141 ft | 375 kts | 263° |
| 2026-05-05 03:03 | 34.99298 | -108.47710 | 32145 ft | 373 kts | 263° |
| 2026-05-05 03:04 | 34.99061 | -108.53986 | 32147 ft | 372 kts | 264° |
| 2026-05-05 03:04 | 34.98820 | -108.60283 | 32144 ft | 373 kts | 263° |
| 2026-05-05 03:05 | 34.98576 | -108.66585 | 32147 ft | 373 kts | 263° |
| 2026-05-05 03:05 | 34.98330 | -108.72877 | 32138 ft | 370 kts | 263° |
| 2026-05-05 03:06 | 34.98081 | -108.79120 | 32126 ft | 371 kts | 263° |
| 2026-05-05 03:06 | 34.97829 | -108.85389 | 32107 ft | 371 kts | 263° |
| 2026-05-05 03:07 | 34.97573 | -108.91657 | 32094 ft | 373 kts | 262° |
| 2026-05-05 03:07 | 34.97314 | -108.97944 | 32083 ft | 370 kts | 262° |
| 2026-05-05 03:08 | 34.97052 | -109.04199 | 32091 ft | 373 kts | 262° |
| 2026-05-05 03:08 | 34.96786 | -109.10495 | 32096 ft | 372 kts | 262° |
| 2026-05-05 03:09 | 34.95953 | -109.16650 | 32092 ft | 370 kts | 249° |
| 2026-05-05 03:09 | 34.93973 | -109.22390 | 32102 ft | 367 kts | 246° |
| 2026-05-05 03:10 | 34.91931 | -109.28110 | 32083 ft | 371 kts | 245° |
| 2026-05-05 03:10 | 34.89859 | -109.33824 | 32100 ft | 367 kts | 246° |
| 2026-05-05 03:11 | 34.87793 | -109.39500 | 32089 ft | 371 kts | 246° |
| 2026-05-05 03:11 | 34.85687 | -109.45255 | 32098 ft | 371 kts | 245° |
| 2026-05-05 03:12 | 34.83590 | -109.50972 | 32087 ft | 372 kts | 246° |
| 2026-05-05 03:12 | 34.81486 | -109.56699 | 32119 ft | 371 kts | 245° |
| 2026-05-05 03:13 | 34.79382 | -109.62412 | 32087 ft | 372 kts | 246° |
| 2026-05-05 03:13 | 34.77269 | -109.68139 | 32125 ft | 372 kts | 246° |
| 2026-05-05 03:14 | 34.75150 | -109.73868 | 32127 ft | 372 kts | 245° |
| 2026-05-05 03:14 | 34.73024 | -109.79606 | 32114 ft | 373 kts | 245° |
| 2026-05-05 03:15 | 34.70891 | -109.85358 | 32099 ft | 375 kts | 246° |
| 2026-05-05 03:15 | 34.68756 | -109.91108 | 32101 ft | 375 kts | 245° |
| 2026-05-05 03:16 | 34.66619 | -109.96845 | 32099 ft | 373 kts | 245° |
| 2026-05-05 03:16 | 34.64475 | -110.02594 | 32108 ft | 374 kts | 245° |
| 2026-05-05 03:17 | 34.62331 | -110.08339 | 31866 ft | 378 kts | 245° |
| 2026-05-05 03:17 | 34.61243 | -110.11251 | 31446 ft | 382 kts | 245° |
| 2026-05-05 03:17 | 34.60155 | -110.14159 | 31025 ft | 383 kts | 245° |
| 2026-05-05 03:17 | 34.59049 | -110.17110 | 30564 ft | 384 kts | 245° |
| 2026-05-05 03:18 | 34.57949 | -110.20039 | 30113 ft | 391 kts | 245° |
| 2026-05-05 03:18 | 34.56815 | -110.23063 | 29562 ft | 398 kts | 244° |
| 2026-05-05 03:18 | 34.55661 | -110.26136 | 28918 ft | 405 kts | 245° |
| 2026-05-05 03:18 | 34.54492 | -110.29248 | 28150 ft | 402 kts | 244° |
| 2026-05-05 03:19 | 34.52259 | -110.35184 | 27452 ft | 373 kts | 244° |
| 2026-05-05 03:19 | 34.51197 | -110.38003 | 27447 ft | 355 kts | 244° |
| 2026-05-05 03:19 | 34.50200 | -110.40649 | 27452 ft | 338 kts | 244° |
| 2026-05-05 03:20 | 34.49255 | -110.43149 | 27437 ft | 323 kts | 245° |
| 2026-05-05 03:20 | 34.48310 | -110.45647 | 27161 ft | 334 kts | 245° |
| 2026-05-05 03:20 | 34.47334 | -110.48225 | 26793 ft | 343 kts | 244° |
| 2026-05-05 03:20 | 34.46340 | -110.50849 | 26417 ft | 341 kts | 244° |
| 2026-05-05 03:21 | 34.45359 | -110.53445 | 26046 ft | 335 kts | 244° |
| 2026-05-05 03:21 | 34.44392 | -110.55989 | 25675 ft | 331 kts | 244° |
| 2026-05-05 03:21 | 34.43432 | -110.58519 | 25319 ft | 329 kts | 244° |
| 2026-05-05 03:21 | 34.42482 | -110.61020 | 24981 ft | 331 kts | 244° |
| 2026-05-05 03:22 | 34.41513 | -110.63570 | 24645 ft | 333 kts | 243° |
| 2026-05-05 03:22 | 34.40556 | -110.66083 | 24302 ft | 331 kts | 243° |
| 2026-05-05 03:22 | 34.39595 | -110.68610 | 23973 ft | 331 kts | 243° |
| 2026-05-05 03:22 | 34.38626 | -110.71152 | 23648 ft | 332 kts | 243° |
| 2026-05-05 03:23 | 34.37671 | -110.73653 | 23312 ft | 330 kts | 243° |
| 2026-05-05 03:23 | 34.36710 | -110.76176 | 22965 ft | 330 kts | 243° |
| 2026-05-05 03:23 | 34.35724 | -110.78664 | 22620 ft | 326 kts | 238° |
| 2026-05-05 03:23 | 34.34367 | -110.80799 | 22320 ft | 323 kts | 228° |
| 2026-05-05 03:24 | 34.32823 | -110.82819 | 22029 ft | 325 kts | 227° |
| 2026-05-05 03:24 | 34.31300 | -110.84825 | 21722 ft | 326 kts | 228° |
| 2026-05-05 03:24 | 34.29774 | -110.86815 | 21407 ft | 326 kts | 227° |
| 2026-05-05 03:24 | 34.28228 | -110.88822 | 21078 ft | 325 kts | 228° |
| 2026-05-05 03:25 | 34.26680 | -110.90829 | 20749 ft | 325 kts | 228° |
| 2026-05-05 03:25 | 34.25145 | -110.92817 | 20436 ft | 325 kts | 228° |
| 2026-05-05 03:25 | 34.23609 | -110.94802 | 20117 ft | 326 kts | 228° |
| 2026-05-05 03:25 | 34.22061 | -110.96803 | 19786 ft | 326 kts | 228° |
| 2026-05-05 03:26 | 34.20504 | -110.98811 | 19444 ft | 326 kts | 229° |
| 2026-05-05 03:26 | 34.18953 | -111.00812 | 19124 ft | 324 kts | 229° |
| 2026-05-05 03:26 | 34.17418 | -111.02791 | 18801 ft | 322 kts | 228° |
| 2026-05-05 03:26 | 34.15907 | -111.04736 | 18535 ft | 321 kts | 229° |
| 2026-05-05 03:27 | 34.14369 | -111.06717 | 18250 ft | 324 kts | 229° |
| 2026-05-05 03:27 | 34.12843 | -111.08680 | 17846 ft | 324 kts | 229° |
| 2026-05-05 03:27 | 34.11299 | -111.10666 | 17313 ft | 324 kts | 229° |
| 2026-05-05 03:27 | 34.09756 | -111.12650 | 16840 ft | 322 kts | 229° |
| 2026-05-05 03:28 | 34.08238 | -111.14600 | 16375 ft | 321 kts | 229° |
| 2026-05-05 03:28 | 34.06719 | -111.16549 | 15907 ft | 319 kts | 229° |
| 2026-05-05 03:28 | 34.05214 | -111.18481 | 15425 ft | 318 kts | 228° |
| 2026-05-05 03:28 | 34.03702 | -111.20420 | 14946 ft | 317 kts | 229° |
| 2026-05-05 03:29 | 34.02189 | -111.22360 | 14448 ft | 317 kts | 228° |
| 2026-05-05 03:29 | 34.00681 | -111.24290 | 13962 ft | 316 kts | 228° |
| 2026-05-05 03:29 | 33.99177 | -111.26217 | 13488 ft | 315 kts | 228° |
| 2026-05-05 03:29 | 33.97694 | -111.28116 | 13108 ft | 311 kts | 227° |
| 2026-05-05 03:30 | 33.96236 | -111.29980 | 12771 ft | 308 kts | 227° |
| 2026-05-05 03:30 | 33.94744 | -111.31888 | 12199 ft | 311 kts | 227° |
| 2026-05-05 03:30 | 33.93300 | -111.33732 | 12075 ft | 298 kts | 227° |
| 2026-05-05 03:30 | 33.91885 | -111.35538 | 11561 ft | 299 kts | 227° |
| 2026-05-05 03:31 | 33.90473 | -111.37341 | 11098 ft | 291 kts | 226° |
| 2026-05-05 03:31 | 33.89119 | -111.39067 | 10886 ft | 278 kts | 227° |
| 2026-05-05 03:31 | 33.87751 | -111.40641 | 10711 ft | 265 kts | 218° |
| 2026-05-05 03:31 | 33.86265 | -111.41935 | 10502 ft | 269 kts | 216° |
| 2026-05-05 03:32 | 33.84730 | -111.43273 | 10218 ft | 271 kts | 216° |
| 2026-05-05 03:32 | 33.83206 | -111.44593 | 9895 ft | 264 kts | 216° |
| 2026-05-05 03:32 | 33.81757 | -111.45843 | 9742 ft | 253 kts | 215° |
| 2026-05-05 03:32 | 33.80332 | -111.47070 | 9544 ft | 254 kts | 215° |
| 2026-05-05 03:33 | 33.78863 | -111.48334 | 9380 ft | 259 kts | 216° |
| 2026-05-05 03:33 | 33.77418 | -111.49577 | 9181 ft | 256 kts | 215° |
| 2026-05-05 03:33 | 33.75971 | -111.50821 | 8967 ft | 253 kts | 216° |
| 2026-05-05 03:33 | 33.74551 | -111.52042 | 8804 ft | 251 kts | 216° |
| 2026-05-05 03:34 | 33.73134 | -111.53259 | 8640 ft | 253 kts | 216° |
| 2026-05-05 03:34 | 33.71676 | -111.54511 | 8462 ft | 254 kts | 215° |
| 2026-05-05 03:34 | 33.70238 | -111.55743 | 8144 ft | 255 kts | 216° |
| 2026-05-05 03:34 | 33.68823 | -111.56958 | 8037 ft | 244 kts | 216° |
| 2026-05-05 03:35 | 33.67475 | -111.58113 | 8026 ft | 231 kts | 216° |
| 2026-05-05 03:35 | 33.66206 | -111.59202 | 8021 ft | 220 kts | 216° |
| 2026-05-05 03:35 | 33.64980 | -111.60252 | 8035 ft | 215 kts | 216° |
| 2026-05-05 03:35 | 33.63742 | -111.61302 | 8004 ft | 222 kts | 216° |
| 2026-05-05 03:36 | 33.62453 | -111.62381 | 7787 ft | 226 kts | 216° |
| 2026-05-05 03:36 | 33.61184 | -111.63443 | 7579 ft | 220 kts | 215° |
| 2026-05-05 03:36 | 33.59933 | -111.64490 | 7271 ft | 218 kts | 215° |
| 2026-05-05 03:36 | 33.58680 | -111.65538 | 7012 ft | 217 kts | 214° |
| 2026-05-05 03:37 | 33.57444 | -111.66572 | 6776 ft | 218 kts | 215° |
| 2026-05-05 03:37 | 33.56210 | -111.67603 | 6547 ft | 218 kts | 215° |
| 2026-05-05 03:37 | 33.54959 | -111.68658 | 6318 ft | 217 kts | 215° |
| 2026-05-05 03:37 | 33.53724 | -111.69701 | 6101 ft | 216 kts | 215° |
| 2026-05-05 03:38 | 33.52506 | -111.70730 | 5885 ft | 215 kts | 215° |
| 2026-05-05 03:38 | 33.51264 | -111.71778 | 5661 ft | 218 kts | 215° |
| 2026-05-05 03:38 | 33.50025 | -111.72824 | 5431 ft | 218 kts | 216° |
| 2026-05-05 03:38 | 33.48805 | -111.73852 | 5204 ft | 215 kts | 215° |
| 2026-05-05 03:39 | 33.47580 | -111.74887 | 4984 ft | 214 kts | 216° |
| 2026-05-05 03:39 | 33.46559 | -111.76173 | 4745 ft | 213 kts | 237° |
| 2026-05-05 03:39 | 33.45840 | -111.77651 | 4561 ft | 200 kts | 238° |
| 2026-05-05 03:39 | 33.45141 | -111.79065 | 4284 ft | 192 kts | 238° |
| 2026-05-05 03:40 | 33.44483 | -111.80412 | 4009 ft | 186 kts | 239° |
| 2026-05-05 03:40 | 33.44115 | -111.81852 | 3723 ft | 184 kts | 264° |
| 2026-05-05 03:40 | 33.44068 | -111.83387 | 3470 ft | 184 kts | 266° |
| 2026-05-05 03:40 | 33.44044 | -111.84917 | 3215 ft | 183 kts | 268° |
| 2026-05-05 03:41 | 33.44056 | -111.86408 | 3047 ft | 171 kts | 268° |
| 2026-05-05 03:41 | 33.44063 | -111.87745 | 2933 ft | 158 kts | 268° |
| 2026-05-05 03:41 | 33.44063 | -111.89085 | 2789 ft | 158 kts | 268° |
| 2026-05-05 03:41 | 33.44065 | -111.90403 | 2585 ft | 155 kts | 268° |
| 2026-05-05 03:42 | 33.44070 | -111.91608 | 2341 ft | 139 kts | 268° |
| 2026-05-05 03:42 | 33.44072 | -111.92717 | 2146 ft | 129 kts | 268° |
| 2026-05-05 03:42 | 33.44073 | -111.93802 | 2005 ft | 133 kts | 269° |
| 2026-05-05 03:42 | 33.44075 | -111.94927 | 1852 ft | 136 kts | 269° |
| 2026-05-05 03:43 | 33.44077 | -111.96059 | 1675 ft | 136 kts | 269° |
| 2026-05-05 03:43 | 33.44079 | -111.97172 | 1504 ft | 135 kts | 269° |
| 2026-05-05 03:43 | 33.44079 | -111.98302 | 1326 ft | 136 kts | 269° |
| 2026-05-05 03:43 | 33.44083 | -111.99396 | 1158 ft | 138 kts | 268° |
| 2026-05-05 03:44 | 33.44084 | -112.00414 | 1137 ft | 115 kts | 270° |
| 2026-05-05 03:44 | 33.44084 | -112.01124 | 1134 ft | 65 kts | 270° |
| 2026-05-05 03:44 | 33.44085 | -112.01555 | 1131 ft | 29 kts | 271° |
| 2026-05-05 03:44 | 33.44037 | -112.01697 | 1130 ft | 11 kts | 227° |
| 2026-05-05 03:45 | 33.43975 | -112.01764 | 1129 ft | 12 kts | 210° |
| 2026-05-05 03:45 | 33.43907 | -112.01745 | 1129 ft | 10 kts | 112° |
| 2026-05-05 03:45 | 33.43902 | -112.01659 | 1131 ft | 10 kts | 90° |
| 2026-05-05 03:45 | 33.43902 | -112.01550 | 1131 ft | 16 kts | 90° |
| 2026-05-05 03:46 | 33.43903 | -112.01389 | 1133 ft | 22 kts | 90° |
| 2026-05-05 03:46 | 33.43903 | -112.01205 | 1134 ft | 23 kts | 89° |
| 2026-05-05 03:46 | 33.43903 | -112.01011 | 1134 ft | 24 kts | 90° |
| 2026-05-05 03:46 | 33.43899 | -112.00806 | 1135 ft | 25 kts | 90° |
| 2026-05-05 03:47 | 33.43902 | -112.00600 | 1137 ft | 25 kts | 89° |
| 2026-05-05 03:47 | 33.43874 | -112.00467 | 1137 ft | 11 kts | 161° |
| 2026-05-05 03:47 | 33.43809 | -112.00469 | 1137 ft | 10 kts | 180° |
| 2026-05-05 03:47 | 33.43715 | -112.00468 | 1137 ft | 15 kts | 179° |
| 2026-05-05 03:48 | 33.43608 | -112.00468 | 1136 ft | 14 kts | 179° |
| 2026-05-05 03:48 | 33.43529 | -112.00468 | 1134 ft | 9 kts | 180° |
| 2026-05-05 03:48 | 33.43457 | -112.00468 | 1133 ft | 13 kts | 180° |
| 2026-05-05 03:48 | 33.43334 | -112.00472 | 1133 ft | 17 kts | 192° |
| 2026-05-05 03:49 | 33.43286 | -112.00572 | 1133 ft | 15 kts | 269° |
| 2026-05-05 03:49 | 33.43286 | -112.00713 | 1134 ft | 18 kts | 270° |
| 2026-05-05 03:49 | 33.43286 | -112.00886 | 1135 ft | 23 kts | 271° |
| 2026-05-05 03:49 | 33.43286 | -112.01086 | 1134 ft | 25 kts | 270° |
| 2026-05-05 03:50 | 33.43318 | -112.01211 | 1133 ft | 8 kts | 338° |
| 2026-05-05 03:50 | 33.43364 | -112.01196 | 1133 ft | 5 kts | 27° |
| 2026-05-05 03:50 | 33.43375 | -112.01189 | 1133 ft | 0 kts | 27° |